Time;durP1;ratioP1;P1;durP2;ratioP2;P2;SDS_P1;SDS_P2;PMS_P1;PMS_P2;Temp;Humidity;BMP_temperature;BMP_pressure;BME280_temperature;BME280_humidity;BME280_pressure;Samples;Min_cycle;Max_cycle;Signal;HPM_P1;HPM_P2
2023/08/20 00:01:23;;;;;;;;;;;;;;;23.74;48.60;94866.16;4174978;28;19936;-77
2023/08/20 00:03:25;;;;;;;;;;;;;;;23.73;48.92;94869.91;4163721;28;19921;-77
2023/08/20 00:05:27;;;;;;;;;;;;;;;23.73;48.76;94863.75;4166553;28;19935;-76
2023/08/20 00:07:32;;;;;;;;;;;;;;;23.74;48.66;94873.38;4164056;28;20263;-79
2023/08/20 00:09:34;;;;;;;;;;;;;;;23.68;48.78;94862.59;4178515;28;19940;-77
2023/08/20 00:11:36;;;;;;;;;;;;;;;23.68;48.83;94867.09;4166214;28;19921;-76
2023/08/20 00:13:38;;;;;;;;;;;;;;;23.69;48.65;94858.84;4163627;28;19994;-77
2023/08/20 00:15:40;;;;;;;;;;;;;;;23.73;48.77;94866.41;4173794;28;20352;-77
2023/08/20 00:17:42;;;;;;;;;;;;;;;23.74;48.89;94865.34;4166021;28;19932;-78
2023/08/20 00:19:44;;;;;;;;;;;;;;;23.68;48.76;94859.91;4168400;28;19925;-77
2023/08/20 00:21:46;;;;;;;;;;;;;;;23.62;48.93;94860.84;4174915;28;20022;-78
2023/08/20 00:23:47;;;;;;;;;;;;;;;23.58;48.91;94861.56;4175976;28;19959;-77
2023/08/20 00:25:50;;;;;;;;;;;;;;;23.61;48.82;94864.56;4170275;28;19925;-78
2023/08/20 00:27:51;;;;;;;;;;;;;;;23.58;48.83;94866.91;4174716;28;20043;-78
2023/08/20 00:29:53;;;;;;;;;;;;;;;23.57;48.85;94873.28;4180062;28;19929;-77
2023/08/20 00:31:54;;;;;;;;;;;;;;;23.52;49.23;94871.31;4179251;28;19924;-78
2023/08/20 00:33:56;;;;;;;;;;;;;;;23.61;48.87;94866.44;4173816;28;19925;-75
2023/08/20 00:36:07;;;;;;;;;;;;;;;23.63;48.77;94865.13;4168591;28;20379;-77
2023/08/20 00:38:09;;;;;;;;;;;;;;;23.61;48.90;94855.72;4175751;28;20399;-77
2023/08/20 00:40:11;;;;;;;;;;;;;;;23.59;48.80;94858.63;4184555;28;19934;-76
2023/08/20 00:42:15;;;;;;;;;;;;;;;23.57;48.79;94866.06;4175444;28;19963;-77
2023/08/20 00:44:19;;;;;;;;;;;;;;;23.62;48.99;94858.19;4170773;28;19920;-76
2023/08/20 00:46:21;;;;;;;;;;;;;;;23.61;48.71;94861.88;4174884;28;19931;-77
2023/08/20 00:48:23;;;;;;;;;;;;;;;23.64;48.94;94866.78;4177712;28;19924;-77
2023/08/20 00:50:25;;;;;;;;;;;;;;;23.49;48.97;94864.59;4166802;28;19921;-77
2023/08/20 00:52:29;;;;;;;;;;;;;;;23.44;49.04;94866.34;4170360;28;19921;-78
2023/08/20 00:54:31;;;;;;;;;;;;;;;23.47;49.13;94861.34;4165505;28;19944;-78
2023/08/20 00:56:33;;;;;;;;;;;;;;;23.47;49.05;94860.53;4162217;28;19921;-76
2023/08/20 00:58:35;;;;;;;;;;;;;;;23.48;48.91;94857.59;4176457;28;19986;-76
2023/08/20 01:00:38;;;;;;;;;;;;;;;23.51;49.05;94848.28;4176328;28;20241;-81
2023/08/20 01:02:40;;;;;;;;;;;;;;;23.51;48.93;94861.66;4161858;28;20004;-76
2023/08/20 01:04:43;;;;;;;;;;;;;;;23.54;48.95;94858.53;4169119;28;19921;-77
2023/08/20 01:07:18;;;;;;;;;;;;;;;23.61;48.87;94864.56;4170816;28;19978;-78
2023/08/20 01:09:23;;;;;;;;;;;;;;;23.59;48.86;94861.31;4172361;28;19921;-77
2023/08/20 01:11:26;;;;;;;;;;;;;;;23.48;49.00;94860.28;4180434;28;19943;-77
2023/08/20 01:13:28;;;;;;;;;;;;;;;23.31;49.27;94857.50;4169061;28;20339;-78
2023/08/20 01:15:30;;;;;;;;;;;;;;;23.17;50.03;94861.50;4169769;28;20287;-78
2023/08/20 01:17:32;;;;;;;;;;;;;;;23.03;50.05;94860.09;4161418;28;19956;-77
2023/08/20 01:19:34;;;;;;;;;;;;;;;22.86;50.95;94858.09;4165075;28;19959;-79
2023/08/20 01:21:39;;;;;;;;;;;;;;;22.87;51.00;94862.41;4169670;28;19925;-77
2023/08/20 01:24:00;;;;;;;;;;;;;;;22.93;50.99;94855.31;4175731;28;19920;-77
2023/08/20 01:26:12;;;;;;;;;;;;;;;23.02;50.76;94855.81;4177595;28;20078;-77
2023/08/20 01:28:23;;;;;;;;;;;;;;;22.83;51.17;94857.75;4177946;28;19931;-78
2023/08/20 01:30:24;;;;;;;;;;;;;;;22.84;51.04;94857.53;4171634;28;20356;-78
2023/08/20 01:32:26;;;;;;;;;;;;;;;22.81;50.91;94849.16;4177311;28;19924;-78
2023/08/20 01:34:27;;;;;;;;;;;;;;;22.76;51.18;94849.03;4162909;28;20404;-77
2023/08/20 01:36:29;;;;;;;;;;;;;;;22.63;51.54;94850.88;4167290;28;20062;-80
2023/08/20 01:38:31;;;;;;;;;;;;;;;22.66;51.35;94846.94;4161606;28;19921;-77
2023/08/20 01:40:32;;;;;;;;;;;;;;;22.56;51.58;94847.50;4162764;28;19940;-78
2023/08/20 01:42:39;;;;;;;;;;;;;;;22.58;51.77;94841.94;4174321;28;19971;-78
2023/08/20 01:44:41;;;;;;;;;;;;;;;22.49;51.96;94838.78;4165906;28;20379;-78
2023/08/20 01:46:42;;;;;;;;;;;;;;;22.49;52.17;94850.28;4177989;28;20283;-78
2023/08/20 01:48:44;;;;;;;;;;;;;;;22.45;52.06;94842.94;4168443;28;19924;-78
2023/08/20 01:50:46;;;;;;;;;;;;;;;22.43;51.99;94848.50;4161599;28;19927;-77
2023/08/20 01:52:50;;;;;;;;;;;;;;;22.55;52.22;94837.06;4167695;28;19944;-79
2023/08/20 01:54:52;;;;;;;;;;;;;;;22.64;51.93;94833.00;4162224;28;19940;-78
2023/08/20 01:56:54;;;;;;;;;;;;;;;22.72;51.56;94830.00;4162328;28;19999;-79
2023/08/20 01:58:56;;;;;;;;;;;;;;;22.81;51.37;94831.28;4168650;28;20098;-79
2023/08/20 02:00:58;;;;;;;;;;;;;;;22.90;50.97;94829.88;4168099;28;19927;-78
2023/08/20 02:03:00;;;;;;;;;;;;;;;22.93;50.97;94819.75;4171648;28;20000;-77
2023/08/20 02:05:02;;;;;;;;;;;;;;;22.84;51.34;94828.16;4164905;28;20245;-76
2023/08/20 02:07:04;;;;;;;;;;;;;;;22.86;51.41;94826.03;4176695;28;19921;-77
2023/08/20 02:09:06;;;;;;;;;;;;;;;22.90;51.05;94819.19;4167403;28;19920;-77
2023/08/20 02:11:07;;;;;;;;;;;;;;;22.96;51.21;94822.00;4161945;28;19931;-78
2023/08/20 02:13:09;;;;;;;;;;;;;;;23.03;51.08;94822.69;4165239;28;19936;-78
2023/08/20 02:15:11;;;;;;;;;;;;;;;23.09;50.78;94821.78;4170720;28;20114;-78
2023/08/20 02:17:14;;;;;;;;;;;;;;;23.15;50.54;94820.03;4160949;28;19928;-77
2023/08/20 02:19:15;;;;;;;;;;;;;;;23.18;50.57;94815.00;4160533;28;20016;-79
2023/08/20 02:21:19;;;;;;;;;;;;;;;23.28;50.40;94819.78;4161260;28;19921;-77
2023/08/20 02:23:21;;;;;;;;;;;;;;;23.34;50.67;94820.69;4168167;28;19921;-77
2023/08/20 02:25:23;;;;;;;;;;;;;;;23.42;49.94;94823.00;4173677;28;19927;-78
2023/08/20 02:27:26;;;;;;;;;;;;;;;23.47;50.06;94823.09;4177268;28;20140;-78
2023/08/20 02:29:27;;;;;;;;;;;;;;;23.52;49.90;94825.88;4168523;28;19929;-77
2023/08/20 02:31:29;;;;;;;;;;;;;;;23.58;49.75;94824.94;4168232;28;20066;-79
2023/08/20 02:33:31;;;;;;;;;;;;;;;23.62;49.55;94830.63;4167234;28;20273;-78
2023/08/20 02:35:33;;;;;;;;;;;;;;;23.64;49.63;94824.00;4158764;28;19921;-77
2023/08/20 02:37:36;;;;;;;;;;;;;;;23.63;49.60;94822.34;4167966;28;19921;-79
2023/08/20 02:39:38;;;;;;;;;;;;;;;23.60;49.51;94824.69;4169647;28;20123;-78
2023/08/20 02:41:39;;;;;;;;;;;;;;;23.58;49.78;94832.94;4161762;28;20035;-78
2023/08/20 02:43:41;;;;;;;;;;;;;;;23.59;49.54;94825.75;4163791;28;20008;-78
2023/08/20 02:45:44;;;;;;;;;;;;;;;23.61;49.63;94832.47;4166594;28;20349;-78
2023/08/20 02:47:45;;;;;;;;;;;;;;;23.67;49.96;94838.75;4162703;28;20262;-77
2023/08/20 02:49:47;;;;;;;;;;;;;;;23.69;49.62;94842.00;4165194;28;19921;-77
2023/08/20 02:51:49;;;;;;;;;;;;;;;23.73;49.66;94848.50;4166080;28;21168;-78
2023/08/20 02:53:50;;;;;;;;;;;;;;;23.74;49.60;94844.75;4171125;28;19928;-78
2023/08/20 02:55:53;;;;;;;;;;;;;;;23.74;49.54;94846.63;4162780;28;19978;-79
2023/08/20 02:57:55;;;;;;;;;;;;;;;23.74;49.59;94844.75;4173388;28;19929;-80
2023/08/20 02:59:57;;;;;;;;;;;;;;;23.71;49.65;94846.06;4163832;28;20015;-78
2023/08/20 03:01:58;;;;;;;;;;;;;;;23.66;49.87;94845.97;4161390;28;19977;-75
2023/08/20 03:04:00;;;;;;;;;;;;;;;23.60;49.88;94854.91;4164143;28;19925;-77
2023/08/20 03:06:02;;;;;;;;;;;;;;;23.57;50.42;94842.00;4167746;28;19921;-77
2023/08/20 03:08:04;;;;;;;;;;;;;;;23.55;50.36;94859.34;4164834;28;20039;-78
2023/08/20 03:10:06;;;;;;;;;;;;;;;23.50;50.65;94854.72;4173723;28;19953;-79
2023/08/20 03:12:07;;;;;;;;;;;;;;;23.51;50.41;94856.31;4172674;28;19921;-77
2023/08/20 03:14:09;;;;;;;;;;;;;;;23.48;50.44;94852.25;4171243;28;19997;-79
2023/08/20 03:16:11;;;;;;;;;;;;;;;23.50;50.28;94852.03;4164805;28;19928;-77
2023/08/20 03:18:12;;;;;;;;;;;;;;;23.48;50.27;94856.81;4175240;28;19924;-77
2023/08/20 03:20:14;;;;;;;;;;;;;;;23.46;50.68;94849.00;4169420;28;19925;-77
2023/08/20 03:22:16;;;;;;;;;;;;;;;23.44;50.59;94844.94;4160460;28;19928;-77
2023/08/20 03:24:17;;;;;;;;;;;;;;;23.43;50.45;94851.38;4170192;28;19928;-78
2023/08/20 03:26:19;;;;;;;;;;;;;;;23.36;50.52;94853.31;4175644;28;19929;-78
2023/08/20 03:28:21;;;;;;;;;;;;;;;23.29;50.92;94851.59;4170628;28;20015;-81
2023/08/20 03:30:22;;;;;;;;;;;;;;;22.97;52.01;94847.63;4169089;28;20003;-78
2023/08/20 03:32:24;;;;;;;;;;;;;;;22.92;52.17;94847.53;4179124;28;20089;-79
2023/08/20 03:34:25;;;;;;;;;;;;;;;22.54;53.46;94846.09;4167371;28;19925;-79
2023/08/20 03:36:27;;;;;;;;;;;;;;;22.02;54.72;94849.31;4179752;28;20362;-78
2023/08/20 03:38:29;;;;;;;;;;;;;;;21.64;55.98;94848.56;4164718;28;20000;-78
2023/08/20 03:40:30;;;;;;;;;;;;;;;21.55;56.37;94847.22;4176887;28;20133;-78
2023/08/20 03:42:32;;;;;;;;;;;;;;;21.57;56.34;94852.34;4162651;28;20011;-78
2023/08/20 03:44:34;;;;;;;;;;;;;;;21.65;56.07;94844.06;4171073;28;19920;-79
2023/08/20 03:46:35;;;;;;;;;;;;;;;21.24;56.97;94843.66;4176199;28;20083;-78
2023/08/20 03:48:37;;;;;;;;;;;;;;;21.34;56.92;94834.31;4179613;28;19940;-76
2023/08/20 03:50:39;;;;;;;;;;;;;;;21.51;56.60;94835.41;4178897;28;19936;-80
2023/08/20 03:52:40;;;;;;;;;;;;;;;21.70;55.97;94835.38;4171772;28;20468;-77
2023/08/20 03:54:42;;;;;;;;;;;;;;;21.87;55.40;94837.19;4178103;28;19947;-80
2023/08/20 03:56:44;;;;;;;;;;;;;;;21.87;55.26;94831.84;4168079;28;19928;-78
2023/08/20 03:58:45;;;;;;;;;;;;;;;22.02;55.09;94834.09;4180859;28;19982;-77
2023/08/20 04:00:47;;;;;;;;;;;;;;;22.15;54.54;94835.78;4173174;28;19921;-78
2023/08/20 04:02:48;;;;;;;;;;;;;;;22.22;54.46;94836.53;4182155;28;19937;-76
2023/08/20 04:04:50;;;;;;;;;;;;;;;22.32;54.08;94829.81;4184803;28;19920;-78
2023/08/20 04:06:52;;;;;;;;;;;;;;;22.42;53.96;94832.75;4185388;28;19963;-79
2023/08/20 04:08:53;;;;;;;;;;;;;;;22.50;53.77;94832.41;4189397;28;19989;-78
2023/08/20 04:10:55;;;;;;;;;;;;;;;22.56;53.27;94830.66;4190502;28;20011;-79
2023/08/20 04:12:56;;;;;;;;;;;;;;;22.65;53.51;94830.13;4192738;28;19971;-78
2023/08/20 04:14:58;;;;;;;;;;;;;;;22.74;53.45;94830.56;4183955;28;20375;-77
2023/08/20 04:17:00;;;;;;;;;;;;;;;22.83;52.85;94834.53;4195108;28;19984;-77
2023/08/20 04:19:01;;;;;;;;;;;;;;;22.93;52.82;94830.44;4194609;28;20260;-76
2023/08/20 04:21:03;;;;;;;;;;;;;;;23.03;52.82;94828.03;4193323;28;19920;-77
2023/08/20 04:23:05;;;;;;;;;;;;;;;23.12;52.60;94831.97;4187636;28;20281;-80
2023/08/20 04:25:06;;;;;;;;;;;;;;;23.18;52.65;94833.72;4191294;28;19980;-78
2023/08/20 04:27:08;;;;;;;;;;;;;;;23.23;52.27;94833.84;4192026;28;20122;-78
2023/08/20 04:29:09;;;;;;;;;;;;;;;23.27;52.12;94835.00;4191574;28;19944;-75
2023/08/20 04:31:11;;;;;;;;;;;;;;;23.31;51.76;94830.78;4181812;28;19908;-77
2023/08/20 04:33:13;;;;;;;;;;;;;;;23.31;52.22;94832.66;4187263;28;19921;-78
2023/08/20 04:35:14;;;;;;;;;;;;;;;23.37;51.93;94833.59;4172401;28;19935;-78
2023/08/20 04:37:16;;;;;;;;;;;;;;;23.33;51.54;94838.56;4171578;28;19921;-79
2023/08/20 04:39:18;;;;;;;;;;;;;;;23.34;51.91;94847.41;4176024;28;19921;-79
2023/08/20 04:41:19;;;;;;;;;;;;;;;23.02;52.53;94843.28;4165597;28;19932;-79
2023/08/20 04:43:21;;;;;;;;;;;;;;;22.90;53.05;94837.06;4163193;28;19929;-78
2023/08/20 04:45:23;;;;;;;;;;;;;;;22.96;53.01;94836.16;4169326;28;19979;-79
2023/08/20 04:47:24;;;;;;;;;;;;;;;23.02;52.99;94845.13;4163869;28;19950;-78
2023/08/20 04:49:28;;;;;;;;;;;;;;;22.92;52.91;94845.66;4171878;28;19925;-79
2023/08/20 04:51:29;;;;;;;;;;;;;;;22.70;53.53;94842.75;4168760;28;19968;-79
2023/08/20 04:53:31;;;;;;;;;;;;;;;22.22;55.16;94849.88;4180690;28;19925;-76
2023/08/20 04:55:33;;;;;;;;;;;;;;;22.38;55.05;94847.59;4170537;28;19921;-79
2023/08/20 04:57:34;;;;;;;;;;;;;;;22.58;54.70;94842.72;4179195;28;19920;-78
2023/08/20 04:59:37;;;;;;;;;;;;;;;22.73;53.66;94844.97;4170871;28;19947;-78
2023/08/20 05:01:39;;;;;;;;;;;;;;;22.46;54.27;94848.06;4181973;28;20107;-77
2023/08/20 05:03:40;;;;;;;;;;;;;;;22.24;54.82;94852.28;4183198;28;19964;-79
2023/08/20 05:05:42;;;;;;;;;;;;;;;22.19;55.06;94847.63;4163936;28;19921;-76
2023/08/20 05:07:44;;;;;;;;;;;;;;;22.22;55.00;94854.34;4182702;28;19951;-78
2023/08/20 05:09:46;;;;;;;;;;;;;;;22.34;54.97;94846.41;4168189;28;20320;-80
2023/08/20 05:11:47;;;;;;;;;;;;;;;22.47;54.39;94848.88;4167959;28;19920;-82
2023/08/20 05:13:49;;;;;;;;;;;;;;;22.58;54.05;94847.28;4180205;28;19936;-79
2023/08/20 05:15:51;;;;;;;;;;;;;;;22.75;54.12;94852.75;4179415;28;20006;-78
2023/08/20 05:17:52;;;;;;;;;;;;;;;22.84;53.54;94854.03;4165810;28;19929;-79
2023/08/20 05:19:54;;;;;;;;;;;;;;;22.99;53.73;94858.91;4174412;28;20183;-78
2023/08/20 05:21:58;;;;;;;;;;;;;;;23.03;53.53;94852.91;4164743;28;19962;-80
2023/08/20 05:24:00;;;;;;;;;;;;;;;23.14;53.18;94853.94;4176627;28;19971;-79
2023/08/20 05:26:02;;;;;;;;;;;;;;;23.22;53.08;94858.94;4179226;28;19931;-77
2023/08/20 05:28:03;;;;;;;;;;;;;;;23.34;52.67;94855.41;4178673;28;20023;-80
2023/08/20 05:30:05;;;;;;;;;;;;;;;23.48;52.47;94862.94;4171312;28;19997;-79
2023/08/20 05:32:08;;;;;;;;;;;;;;;23.54;52.24;94855.88;4163593;28;19921;-79
2023/08/20 05:34:09;;;;;;;;;;;;;;;23.60;52.09;94864.81;4165311;28;19932;-77
2023/08/20 05:36:11;;;;;;;;;;;;;;;23.69;52.24;94864.19;4173283;28;19951;-79
2023/08/20 05:38:12;;;;;;;;;;;;;;;23.35;52.58;94862.41;4162468;28;20276;-79
2023/08/20 05:40:16;;;;;;;;;;;;;;;23.54;52.41;94860.41;4162725;28;20011;-80
2023/08/20 05:42:18;;;;;;;;;;;;;;;23.52;52.58;94869.47;4167253;28;19925;-77
2023/08/20 05:44:20;;;;;;;;;;;;;;;23.62;52.26;94858.19;4154891;28;19968;-78
2023/08/20 05:46:21;;;;;;;;;;;;;;;23.64;52.54;94868.63;4172236;28;19959;-78
2023/08/20 05:48:23;;;;;;;;;;;;;;;23.70;52.35;94867.66;4178166;28;19974;-78
2023/08/20 05:50:27;;;;;;;;;;;;;;;23.74;51.88;94868.03;4163465;28;19925;-78
2023/08/20 05:52:29;;;;;;;;;;;;;;;23.77;52.19;94868.41;4169690;28;19953;-79
2023/08/20 05:54:30;;;;;;;;;;;;;;;23.61;52.35;94867.22;4173987;28;19921;-79
2023/08/20 05:56:32;;;;;;;;;;;;;;;23.54;52.62;94866.56;4177261;28;19982;-78
2023/08/20 05:58:34;;;;;;;;;;;;;;;23.83;52.33;94862.09;4178713;28;19927;-79
2023/08/20 06:00:35;;;;;;;;;;;;;;;24.02;51.70;94867.25;4178462;28;20023;-78
2023/08/20 06:02:37;;;;;;;;;;;;;;;24.16;51.24;94865.13;4192339;28;19920;-78
2023/08/20 06:04:39;;;;;;;;;;;;;;;24.02;51.59;94862.72;4170820;28;19924;-79
2023/08/20 06:06:41;;;;;;;;;;;;;;;24.24;51.54;94862.03;4173962;28;19920;-79
2023/08/20 06:08:43;;;;;;;;;;;;;;;24.48;50.93;94866.25;4170235;28;20304;-79
2023/08/20 06:11:03;;;;;;;;;;;;;;;24.47;51.02;94867.25;4161654;28;19921;-77
2023/08/20 06:13:04;;;;;;;;;;;;;;;24.51;50.17;94871.13;4177499;28;19932;-77
2023/08/20 06:15:06;;;;;;;;;;;;;;;24.59;50.00;94863.75;4177634;28;19927;-80
2023/08/20 06:17:08;;;;;;;;;;;;;;;24.34;50.20;94864.91;4169624;28;19927;-79
2023/08/20 06:19:10;;;;;;;;;;;;;;;24.21;50.81;94866.00;4176935;28;19925;-79
2023/08/20 06:21:15;;;;;;;;;;;;;;;24.25;50.61;94872.50;4163382;28;19921;-79
2023/08/20 06:23:18;;;;;;;;;;;;;;;24.48;50.46;94868.09;4168790;28;19996;-76
2023/08/20 06:25:39;;;;;;;;;;;;;;;24.52;49.67;94875.44;4171770;28;19931;-79
2023/08/20 06:27:41;;;;;;;;;;;;;;;24.78;49.38;94875.03;4168985;28;19920;-77
2023/08/20 06:29:43;;;;;;;;;;;;;;;24.87;49.16;94871.72;4173603;28;20023;-78
2023/08/20 06:31:45;;;;;;;;;;;;;;;25.07;48.78;94873.06;4177688;28;19974;-79
2023/08/20 06:33:47;;;;;;;;;;;;;;;25.35;48.18;94864.13;4166259;28;20347;-78
2023/08/20 06:35:48;;;;;;;;;;;;;;;25.50;47.74;94871.56;4170130;28;19928;-77
2023/08/20 06:37:50;;;;;;;;;;;;;;;25.47;47.86;94870.19;4167840;28;19986;-78
2023/08/20 06:39:51;;;;;;;;;;;;;;;25.58;47.52;94878.38;4179083;28;19931;-79
2023/08/20 06:41:53;;;;;;;;;;;;;;;25.21;48.19;94870.88;4177447;28;19921;-77
2023/08/20 06:43:55;;;;;;;;;;;;;;;24.95;48.77;94878.50;4177691;28;20400;-77
2023/08/20 06:45:56;;;;;;;;;;;;;;;25.11;49.04;94876.88;4169437;28;19967;-79
2023/08/20 06:47:58;;;;;;;;;;;;;;;25.25;48.91;94874.69;4162597;28;19931;-78
2023/08/20 06:50:00;;;;;;;;;;;;;;;25.24;48.75;94868.53;4162470;28;19968;-78
2023/08/20 06:52:01;;;;;;;;;;;;;;;25.53;48.66;94868.38;4164786;28;20013;-78
2023/08/20 06:54:05;;;;;;;;;;;;;;;25.75;47.90;94871.09;4172739;28;19921;-78
2023/08/20 06:56:08;;;;;;;;;;;;;;;26.00;47.63;94869.78;4174031;28;20011;-77
2023/08/20 06:58:10;;;;;;;;;;;;;;;26.18;47.37;94871.31;4178225;28;19944;-78
2023/08/20 07:00:11;;;;;;;;;;;;;;;26.15;46.84;94875.31;4164330;28;19921;-80
2023/08/20 07:02:13;;;;;;;;;;;;;;;25.68;47.41;94873.13;4163025;28;19929;-78
2023/08/20 07:04:15;;;;;;;;;;;;;;;25.59;47.71;94871.94;4170594;28;20008;-78
2023/08/20 07:06:18;;;;;;;;;;;;;;;25.74;47.68;94872.94;4166066;28;20226;-78
2023/08/20 07:08:20;;;;;;;;;;;;;;;26.00;47.15;94870.59;4179753;28;20404;-78
2023/08/20 07:10:21;;;;;;;;;;;;;;;26.32;46.28;94872.53;4173575;28;19950;-80
2023/08/20 07:12:23;;;;;;;;;;;;;;;26.53;45.40;94868.97;4166237;28;20265;-77
2023/08/20 07:14:25;;;;;;;;;;;;;;;26.60;45.12;94870.69;4173491;28;19972;-78
2023/08/20 07:16:26;;;;;;;;;;;;;;;26.84;45.01;94863.88;4164726;28;20261;-79
2023/08/20 07:18:28;;;;;;;;;;;;;;;27.02;43.47;94867.22;4180389;28;19936;-79
2023/08/20 07:20:30;;;;;;;;;;;;;;;27.22;42.82;94870.09;4175097;28;19994;-78
2023/08/20 07:22:31;;;;;;;;;;;;;;;27.35;42.56;94868.84;4167123;28;19921;-81
2023/08/20 07:24:35;;;;;;;;;;;;;;;27.49;42.00;94864.63;4165604;28;19921;-80
2023/08/20 07:26:36;;;;;;;;;;;;;;;27.58;41.98;94867.63;4168881;28;20002;-78
2023/08/20 07:28:59;;;;;;;;;;;;;;;27.78;41.77;94869.59;4174530;28;19976;-78
2023/08/20 07:31:00;;;;;;;;;;;;;;;27.94;40.95;94867.78;4163956;28;19974;-79
2023/08/20 07:33:05;;;;;;;;;;;;;;;28.02;41.33;94869.97;4171657;28;20019;-76
2023/08/20 07:35:08;;;;;;;;;;;;;;;28.16;40.50;94871.09;4171733;28;19932;-78
2023/08/20 07:37:12;;;;;;;;;;;;;;;28.22;40.63;94869.22;4170532;28;19920;-78
2023/08/20 07:39:14;;;;;;;;;;;;;;;28.15;41.13;94865.97;4165831;28;19924;-80
2023/08/20 07:41:22;;;;;;;;;;;;;;;28.14;40.64;94865.19;4173703;28;20288;-80
2023/08/20 07:43:24;;;;;;;;;;;;;;;28.06;41.08;94876.47;4179763;28;20347;-78
2023/08/20 07:45:25;;;;;;;;;;;;;;;27.90;41.50;94877.47;4172390;28;19972;-77
2023/08/20 07:47:30;;;;;;;;;;;;;;;28.01;40.98;94878.31;4163020;28;19921;-80
2023/08/20 07:49:32;;;;;;;;;;;;;;;27.98;41.63;94876.97;4178857;28;20504;-78
2023/08/20 07:51:34;;;;;;;;;;;;;;;28.04;41.41;94875.91;4179432;28;19921;-76
2023/08/20 07:53:35;;;;;;;;;;;;;;;28.02;41.26;94872.66;4177977;28;20426;-80
2023/08/20 07:55:37;;;;;;;;;;;;;;;28.04;41.09;94875.09;4175339;28;19975;-79
2023/08/20 07:57:38;;;;;;;;;;;;;;;28.07;41.05;94877.25;4175450;28;20003;-76
2023/08/20 07:59:40;;;;;;;;;;;;;;;28.16;40.26;94879.19;4173428;28;20007;-81
2023/08/20 08:01:42;;;;;;;;;;;;;;;28.29;40.31;94871.69;4168901;28;20456;-82
2023/08/20 08:03:43;;;;;;;;;;;;;;;28.34;40.11;94880.56;4166008;28;19924;-82
2023/08/20 08:05:49;;;;;;;;;;;;;;;28.33;39.02;94876.28;4163556;28;19944;-79
2023/08/20 08:07:50;;;;;;;;;;;;;;;28.01;40.12;94870.22;4168609;28;20093;-79
2023/08/20 08:09:52;;;;;;;;;;;;;;;28.11;40.04;94881.03;4179259;28;20391;-78
2023/08/20 08:11:53;;;;;;;;;;;;;;;28.14;38.99;94875.16;4163717;28;19998;-79
2023/08/20 08:13:55;;;;;;;;;;;;;;;28.30;39.18;94866.00;4173181;28;20340;-78
2023/08/20 08:15:57;;;;;;;;;;;;;;;28.45;39.20;94873.31;4179304;28;20238;-80
2023/08/20 08:17:58;;;;;;;;;;;;;;;28.66;38.62;94884.16;4176330;28;19921;-79
2023/08/20 08:20:00;;;;;;;;;;;;;;;28.77;37.87;94866.91;4170392;28;19924;-80
2023/08/20 08:22:02;;;;;;;;;;;;;;;28.47;37.71;94873.84;4176681;28;19928;-78
2023/08/20 08:24:05;;;;;;;;;;;;;;;28.47;37.55;94873.84;4168750;28;20368;-81
2023/08/20 08:26:07;;;;;;;;;;;;;;;28.64;37.63;94876.34;4180432;28;19927;-78
2023/08/20 08:28:09;;;;;;;;;;;;;;;28.76;37.38;94871.50;4179806;28;20360;-78
2023/08/20 08:30:10;;;;;;;;;;;;;;;28.74;37.35;94881.75;4169648;28;20318;-79
2023/08/20 08:32:12;;;;;;;;;;;;;;;28.67;37.02;94872.28;4164184;28;20353;-79
2023/08/20 08:34:14;;;;;;;;;;;;;;;28.27;37.80;94860.38;4166621;28;20349;-78
2023/08/20 08:36:16;;;;;;;;;;;;;;;28.35;37.55;94865.19;4174153;28;20364;-80
2023/08/20 08:38:18;;;;;;;;;;;;;;;28.37;37.63;94861.19;4178681;28;19930;-79
2023/08/20 08:40:19;;;;;;;;;;;;;;;28.57;37.45;94862.31;4166474;28;19979;-79
2023/08/20 08:42:22;;;;;;;;;;;;;;;28.65;37.24;94864.47;4177554;28;19920;-78
2023/08/20 08:44:23;;;;;;;;;;;;;;;28.48;37.27;94871.97;4176610;28;19921;-78
2023/08/20 08:46:27;;;;;;;;;;;;;;;28.30;37.66;94873.28;4175257;28;19990;-81
2023/08/20 08:48:29;;;;;;;;;;;;;;;28.30;37.81;94863.31;4165666;28;19928;-78
2023/08/20 08:50:31;;;;;;;;;;;;;;;28.41;37.77;94866.03;4177453;28;19971;-78
2023/08/20 08:52:33;;;;;;;;;;;;;;;28.65;37.11;94869.06;4165504;28;20348;-78
2023/08/20 08:54:35;;;;;;;;;;;;;;;28.79;35.56;94870.94;4163026;28;19936;-79
2023/08/20 08:56:36;;;;;;;;;;;;;;;28.81;34.78;94878.78;4166481;28;19921;-80
2023/08/20 08:58:39;;;;;;;;;;;;;;;28.94;34.27;94870.16;4169385;28;19932;-78
2023/08/20 09:00:41;;;;;;;;;;;;;;;28.76;35.24;94870.66;4170191;28;20013;-78
2023/08/20 09:02:44;;;;;;;;;;;;;;;28.36;35.82;94866.84;4181479;28;20390;-79
2023/08/20 09:04:45;;;;;;;;;;;;;;;28.35;36.15;94871.44;4170251;28;20039;-80
2023/08/20 09:06:48;;;;;;;;;;;;;;;28.52;35.33;94871.22;4169309;28;19920;-79
2023/08/20 09:08:50;;;;;;;;;;;;;;;28.83;35.01;94870.44;4176849;28;20464;-80
2023/08/20 09:10:53;;;;;;;;;;;;;;;29.06;34.45;94866.34;4178549;28;20373;-80
2023/08/20 09:12:56;;;;;;;;;;;;;;;29.32;33.70;94869.84;4176645;28;19943;-80
2023/08/20 09:15:00;;;;;;;;;;;;;;;29.54;33.64;94864.94;4178280;28;19927;-78
2023/08/20 09:17:01;;;;;;;;;;;;;;;29.71;33.62;94861.16;4171757;28;19921;-80
2023/08/20 09:19:03;;;;;;;;;;;;;;;29.89;32.87;94855.13;4164173;28;20009;-79
2023/08/20 09:21:08;;;;;;;;;;;;;;;29.76;33.12;94864.63;4163029;28;19932;-82
2023/08/20 09:23:13;;;;;;;;;;;;;;;29.90;33.19;94867.56;4172425;28;20091;-82
2023/08/20 09:25:15;;;;;;;;;;;;;;;30.04;32.92;94856.97;4177881;28;20011;-79
2023/08/20 09:27:17;;;;;;;;;;;;;;;30.18;33.05;94866.06;4178709;28;19921;-78
2023/08/20 09:29:18;;;;;;;;;;;;;;;30.16;32.71;94870.16;4177376;28;19931;-80
2023/08/20 09:31:20;;;;;;;;;;;;;;;29.95;32.54;94864.03;4163940;28;20352;-80
2023/08/20 09:33:22;;;;;;;;;;;;;;;30.02;32.73;94859.94;4171085;28;19924;-80
2023/08/20 09:35:23;;;;;;;;;;;;;;;30.15;32.45;94857.72;4177638;28;19920;-79
2023/08/20 09:37:25;;;;;;;;;;;;;;;29.85;32.00;94861.38;4166357;28;20241;-82
2023/08/20 09:39:26;;;;;;;;;;;;;;;29.57;32.53;94858.19;4166216;28;20276;-79
2023/08/20 09:41:28;;;;;;;;;;;;;;;29.65;32.47;94860.31;4162926;28;19948;-81
2023/08/20 09:43:30;;;;;;;;;;;;;;;29.66;32.17;94856.53;4164695;28;20005;-79
2023/08/20 09:45:32;;;;;;;;;;;;;;;29.51;31.98;94862.81;4170837;28;19956;-79
2023/08/20 09:47:35;;;;;;;;;;;;;;;29.50;31.82;94855.78;4171032;28;19931;-79
2023/08/20 09:49:40;;;;;;;;;;;;;;;29.57;31.84;94858.19;4164956;28;20548;-79
2023/08/20 09:51:42;;;;;;;;;;;;;;;29.82;31.91;94846.53;4169013;28;20384;-81
2023/08/20 09:54:02;;;;;;;;;;;;;;;30.03;31.92;94852.66;4175754;28;19932;-83
2023/08/20 09:56:13;;;;;;;;;;;;;;;30.20;31.92;94852.28;4182440;28;19920;-81
2023/08/20 09:58:16;;;;;;;;;;;;;;;29.73;31.97;94840.91;4173431;28;19942;-78
2023/08/20 10:00:18;;;;;;;;;;;;;;;29.52;32.99;94850.94;4161834;28;20583;-79
2023/08/20 10:02:19;;;;;;;;;;;;;;;29.88;32.91;94847.31;4169375;28;19968;-79
2023/08/20 10:04:21;;;;;;;;;;;;;;;30.18;31.97;94844.47;4168869;28;19951;-78
2023/08/20 10:06:23;;;;;;;;;;;;;;;30.36;32.03;94842.22;4168004;28;19920;-78
2023/08/20 10:08:25;;;;;;;;;;;;;;;30.31;30.81;94844.94;4168484;28;19921;-83
2023/08/20 10:10:26;;;;;;;;;;;;;;;30.17;31.32;94856.34;4167796;28;19928;-78
2023/08/20 10:12:28;;;;;;;;;;;;;;;29.66;31.54;94850.34;4173664;28;20382;-80
2023/08/20 10:14:30;;;;;;;;;;;;;;;29.27;32.08;94841.00;4163850;28;19957;-78
2023/08/20 10:16:32;;;;;;;;;;;;;;;29.14;32.82;94845.06;4163075;28;19935;-79
2023/08/20 10:18:35;;;;;;;;;;;;;;;29.45;32.60;94846.88;4168566;28;20022;-79
2023/08/20 10:20:38;;;;;;;;;;;;;;;29.31;32.37;94855.56;4166575;28;20418;-78
2023/08/20 10:22:40;;;;;;;;;;;;;;;29.63;31.98;94849.00;4164913;28;19927;-78
2023/08/20 10:24:46;;;;;;;;;;;;;;;29.68;31.52;94843.56;4175138;28;19943;-79
2023/08/20 10:26:54;;;;;;;;;;;;;;;29.72;31.52;94847.38;4178568;28;19925;-83
2023/08/20 10:29:14;;;;;;;;;;;;;;;29.76;31.34;94845.72;4177345;28;19929;-79
2023/08/20 10:31:16;;;;;;;;;;;;;;;29.74;31.34;94853.31;4165574;28;20438;-79
2023/08/20 10:33:18;;;;;;;;;;;;;;;29.57;31.53;94853.59;4167403;28;19932;-81
2023/08/20 10:35:23;;;;;;;;;;;;;;;29.15;31.95;94840.50;4162256;28;19943;-82
2023/08/20 10:37:26;;;;;;;;;;;;;;;29.38;32.15;94831.81;4166705;28;19955;-77
2023/08/20 10:39:27;;;;;;;;;;;;;;;29.55;32.02;94838.75;4171244;28;19920;-81